Time;durP1;ratioP1;P1;durP2;ratioP2;P2;SDS_P1;SDS_P2;PMS_P1;PMS_P2;Temp;Humidity;BMP_temperature;BMP_pressure;BME280_temperature;BME280_humidity;BME280_pressure;Samples;Min_cycle;Max_cycle;Signal;HPM_P1;HPM_P2
2022/07/23 00:00:31;;;;;;;4.97;4.47;;;21.70;99.90;;;;;;2072336;28;20064;-76
2022/07/23 00:01:32;;;;;;;6.78;4.70;;;21.70;99.90;;;;;;2063881;28;20093;-76
2022/07/23 00:02:32;;;;;;;5.05;4.35;;;21.60;99.90;;;;;;2063812;28;20027;-76
2022/07/23 00:03:33;;;;;;;4.90;4.50;;;21.60;99.90;;;;;;2072170;28;20030;-75
2022/07/23 00:04:34;;;;;;;5.15;4.50;;;21.60;99.90;;;;;;2080872;28;20026;-76
2022/07/23 00:05:35;;;;;;;5.78;5.00;;;21.60;99.90;;;;;;2081145;28;20060;-76
2022/07/23 00:06:36;;;;;;;5.95;5.28;;;21.50;99.90;;;;;;2080875;28;20113;-75
2022/07/23 00:07:37;;;;;;;5.60;5.03;;;21.50;99.90;;;;;;2080611;28;20045;-75
2022/07/23 00:08:37;;;;;;;5.03;4.57;;;21.50;99.90;;;;;;2071292;28;20527;-76
2022/07/23 00:09:38;;;;;;;5.03;4.57;;;21.50;99.90;;;;;;2071823;28;20029;-75
2022/07/23 00:10:39;;;;;;;5.43;4.72;;;21.50;99.90;;;;;;2079835;28;20488;-75
2022/07/23 00:11:39;;;;;;;5.50;4.95;;;21.50;99.90;;;;;;2079391;28;20045;-76
2022/07/23 00:12:41;;;;;;;5.35;4.53;;;21.50;99.90;;;;;;2079707;28;20752;-75
2022/07/23 00:13:41;;;;;;;9.90;5.20;;;21.50;99.90;;;;;;2080524;28;20057;-75
2022/07/23 00:14:42;;;;;;;12.25;5.50;;;21.50;99.90;;;;;;2080264;28;20029;-76
2022/07/23 00:15:43;;;;;;;7.00;5.32;;;21.50;99.90;;;;;;2071675;28;20515;-75
2022/07/23 00:16:44;;;;;;;8.30;5.35;;;21.50;99.90;;;;;;2071576;28;20642;-75
2022/07/23 00:17:44;;;;;;;8.43;4.97;;;21.40;99.90;;;;;;2080289;28;20057;-75
2022/07/23 00:18:45;;;;;;;7.97;5.40;;;21.40;99.90;;;;;;2080292;28;20017;-75
2022/07/23 00:19:46;;;;;;;8.73;5.38;;;21.40;99.90;;;;;;2071688;28;20034;-75
2022/07/23 00:20:47;;;;;;;10.60;5.07;;;21.40;99.90;;;;;;2071760;28;20037;-75
2022/07/23 00:21:47;;;;;;;13.25;5.80;;;21.40;99.90;;;;;;2080186;28;20040;-75
2022/07/23 00:22:53;;;;;;;13.63;5.80;;;21.40;99.90;;;;;;2079300;28;20037;-75
2022/07/23 00:23:54;;;;;;;10.95;5.70;;;21.40;99.90;;;;;;2071344;28;20030;-76
2022/07/23 00:24:55;;;;;;;16.08;6.28;;;21.40;99.90;;;;;;2071491;28;20115;-76
2022/07/23 00:25:56;;;;;;;11.77;5.57;;;21.40;99.90;;;;;;2080096;28;20026;-74
2022/07/23 00:26:57;;;;;;;9.10;5.50;;;21.30;99.90;;;;;;2079482;28;20703;-76
2022/07/23 00:27:59;;;;;;;7.40;5.80;;;21.30;99.90;;;;;;2079273;28;20033;-74
2022/07/23 00:28:59;;;;;;;7.28;5.70;;;21.30;99.90;;;;;;2080067;28;20061;-75
2022/07/23 00:30:00;;;;;;;7.45;5.68;;;21.30;99.90;;;;;;2071282;28;20022;-75
2022/07/23 00:31:01;;;;;;;7.28;5.75;;;21.20;99.90;;;;;;2079374;28;20079;-75
2022/07/23 00:32:02;;;;;;;7.00;5.85;;;21.20;99.90;;;;;;2071496;28;20037;-76
2022/07/23 00:33:05;;;;;;;5.90;5.40;;;21.10;99.90;;;;;;2070933;28;20041;-76
2022/07/23 00:34:06;;;;;;;6.47;5.85;;;21.00;99.90;;;;;;2071053;28;20038;-75
2022/07/23 00:35:06;;;;;;;6.22;5.65;;;21.00;99.90;;;;;;2062737;28;20041;-75
2022/07/23 00:36:08;;;;;;;6.53;5.93;;;21.00;99.90;;;;;;2063155;28;20035;-76
2022/07/23 00:37:09;;;;;;;6.05;5.53;;;21.00;99.90;;;;;;2071223;28;20052;-76
2022/07/23 00:38:11;;;;;;;7.10;5.78;;;21.00;99.90;;;;;;2071215;28;20130;-76
2022/07/23 00:39:11;;;;;;;6.15;5.65;;;20.90;99.90;;;;;;2079395;28;20095;-75
2022/07/23 00:40:12;;;;;;;6.55;5.68;;;20.90;99.90;;;;;;2071196;28;20180;-75
2022/07/23 00:41:13;;;;;;;6.40;5.70;;;20.80;99.90;;;;;;2062922;28;20066;-75
2022/07/23 00:42:14;;;;;;;6.68;5.97;;;20.80;99.90;;;;;;2071052;28;20034;-74
2022/07/23 00:43:14;;;;;;;6.10;5.53;;;20.80;99.90;;;;;;2071962;28;20423;-75
2022/07/23 00:44:19;;;;;;;7.18;5.55;;;20.90;99.90;;;;;;2072398;28;20396;-74
2022/07/23 00:45:20;;;;;;;9.38;5.70;;;20.80;99.90;;;;;;2072702;28;20018;-74
2022/07/23 00:46:22;;;;;;;7.00;6.30;;;20.80;99.90;;;;;;2058166;28;20102;-74
2022/07/23 00:47:23;;;;;;;7.78;6.20;;;20.70;99.90;;;;;;2069268;28;20298;-74
2022/07/23 00:48:23;;;;;;;6.40;5.80;;;20.70;99.90;;;;;;2080467;28;20121;-74
2022/07/23 00:49:28;;;;;;;6.13;5.53;;;20.70;99.90;;;;;;2078783;28;20040;-73
2022/07/23 00:50:29;;;;;;;6.30;5.70;;;20.70;99.90;;;;;;2081633;28;20044;-74
2022/07/23 00:51:29;;;;;;;6.55;5.88;;;20.70;99.90;;;;;;2072596;28;20672;-74
2022/07/23 00:52:32;;;;;;;7.28;5.45;;;20.70;99.90;;;;;;2072650;28;20164;-74
2022/07/23 00:53:33;;;;;;;6.30;5.70;;;20.70;99.90;;;;;;2080752;28;20052;-77
2022/07/23 00:54:34;;;;;;;5.85;5.35;;;20.70;99.90;;;;;;2072420;28;20034;-76
2022/07/23 00:55:35;;;;;;;6.28;5.68;;;20.70;99.90;;;;;;2080316;28;20757;-74
2022/07/23 00:56:35;;;;;;;6.20;5.60;;;20.80;99.90;;;;;;2081111;28;20044;-75
2022/07/23 00:57:38;;;;;;;6.10;5.50;;;20.70;99.90;;;;;;2072940;28;20476;-75
2022/07/23 00:58:42;;;;;;;6.63;5.85;;;20.70;99.90;;;;;;2065095;28;20042;-76
2022/07/23 00:59:43;;;;;;;6.32;5.80;;;20.70;99.90;;;;;;2065477;28;20026;-75
2022/07/23 01:00:43;;;;;;;6.40;5.80;;;20.80;99.90;;;;;;2073880;28;20029;-75
2022/07/23 01:01:46;;;;;;;6.10;5.50;;;20.70;99.90;;;;;;2081288;28;20097;-75
2022/07/23 01:02:47;;;;;;;6.20;5.70;;;20.70;99.90;;;;;;2072676;28;20528;-75
2022/07/23 01:03:48;;;;;;;6.03;5.53;;;20.60;99.90;;;;;;2064857;28;20026;-75
2022/07/23 01:04:48;;;;;;;6.18;5.68;;;20.60;99.90;;;;;;2081315;28;20083;-76
2022/07/23 01:05:49;;;;;;;6.25;5.75;;;20.60;99.90;;;;;;2081207;28;20105;-75
2022/07/23 01:06:50;;;;;;;6.07;5.57;;;20.60;99.90;;;;;;2072713;28;20551;-75
2022/07/23 01:07:52;;;;;;;6.03;5.53;;;20.70;99.90;;;;;;2072621;28;20041;-75
2022/07/23 01:08:54;;;;;;;6.88;6.22;;;20.60;99.90;;;;;;2080388;28;20030;-75
2022/07/23 01:09:55;;;;;;;6.75;6.15;;;20.70;99.90;;;;;;2080248;28;20576;-74
2022/07/23 01:10:56;;;;;;;6.68;6.07;;;20.60;99.90;;;;;;2072356;28;20022;-75
2022/07/23 01:11:58;;;;;;;6.40;5.90;;;20.60;99.90;;;;;;2080417;28;20613;-74
2022/07/23 01:13:04;;;;;;;6.68;5.93;;;20.60;99.90;;;;;;2080015;28;20463;-75
2022/07/23 01:14:12;;;;;;;6.32;5.72;;;20.60;99.90;;;;;;2064221;28;20399;-75
2022/07/23 01:15:13;;;;;;;6.80;6.20;;;20.60;99.90;;;;;;2064202;28;20037;-75
2022/07/23 01:16:14;;;;;;;6.32;5.70;;;20.60;99.90;;;;;;2064318;28;20023;-75
2022/07/23 01:17:15;;;;;;;6.57;5.97;;;20.70;99.90;;;;;;2064139;28;20532;-75
2022/07/23 01:18:15;;;;;;;6.13;5.63;;;20.70;99.90;;;;;;2064302;28;20034;-75
2022/07/23 01:19:17;;;;;;;6.80;6.20;;;20.60;99.90;;;;;;2072411;28;20072;-75
2022/07/23 01:20:18;;;;;;;6.22;5.72;;;20.60;99.90;;;;;;2072827;28;20053;-76
2022/07/23 01:21:20;;;;;;;7.18;6.47;;;20.60;99.90;;;;;;2080940;28;20115;-75
2022/07/23 01:22:21;;;;;;;7.63;6.40;;;20.60;99.90;;;;;;2064652;28;20073;-75
2022/07/23 01:23:22;;;;;;;6.43;5.82;;;20.70;99.90;;;;;;2056945;28;20107;-75
2022/07/23 01:24:28;;;;;;;6.43;5.82;;;20.70;99.90;;;;;;2065220;28;20027;-75
2022/07/23 01:25:34;;;;;;;6.72;6.00;;;20.60;99.90;;;;;;2073277;28;20029;-74
2022/07/23 01:26:37;;;;;;;6.10;5.60;;;20.60;99.90;;;;;;2072516;28;20638;-75
2022/07/23 01:27:38;;;;;;;7.28;6.55;;;20.60;99.90;;;;;;2066232;28;20030;-74
2022/07/23 01:28:39;;;;;;;7.05;5.95;;;20.60;99.90;;;;;;2068904;28;20477;-74
2022/07/23 01:29:41;;;;;;;6.63;6.00;;;20.70;99.90;;;;;;2069005;28;20496;-74
2022/07/23 01:30:48;;;;;;;6.60;6.00;;;20.60;99.90;;;;;;2067131;28;20023;-74
2022/07/23 01:31:49;;;;;;;6.97;6.10;;;20.70;99.90;;;;;;2072813;28;20053;-74
2022/07/23 01:32:50;;;;;;;6.03;5.53;;;20.70;99.90;;;;;;2080070;28;20021;-75
2022/07/23 01:33:51;;;;;;;6.20;5.60;;;20.60;99.90;;;;;;2063954;28;20497;-74
2022/07/23 01:34:51;;;;;;;6.50;6.00;;;20.70;99.90;;;;;;2064190;28;20045;-74
2022/07/23 01:35:52;;;;;;;6.47;5.97;;;20.60;99.90;;;;;;2064185;28;20678;-74
2022/07/23 01:36:57;;;;;;;5.90;5.40;;;20.70;99.90;;;;;;2064835;28;20057;-73
2022/07/23 01:37:58;;;;;;;6.30;5.70;;;20.70;99.90;;;;;;2064098;28;20044;-74
2022/07/23 01:38:58;;;;;;;7.88;6.00;;;20.60;99.90;;;;;;2072457;28;20029;-74
2022/07/23 01:39:59;;;;;;;6.25;5.75;;;20.70;99.90;;;;;;2072142;28;20528;-74
2022/07/23 01:40:59;;;;;;;6.00;5.50;;;20.60;99.90;;;;;;2080792;28;20064;-75
2022/07/23 01:42:05;;;;;;;6.07;5.47;;;20.60;99.90;;;;;;2080091;28;20037;-75
2022/07/23 01:43:06;;;;;;;7.82;6.10;;;20.60;99.90;;;;;;2079859;28;20040;-73
2022/07/23 01:44:09;;;;;;;6.65;6.05;;;20.60;99.90;;;;;;2072135;28;20026;-73
2022/07/23 01:45:11;;;;;;;6.45;5.93;;;20.60;99.90;;;;;;2064004;28;20042;-74
2022/07/23 01:46:15;;;;;;;6.05;5.55;;;20.60;99.90;;;;;;2072506;28;20109;-74
2022/07/23 01:47:20;;;;;;;6.10;5.50;;;20.50;99.90;;;;;;2071636;28;20025;-74
2022/07/23 01:48:24;;;;;;;6.32;5.82;;;20.50;99.90;;;;;;2063913;28;20050;-75
2022/07/23 01:49:46;;;;;;;6.90;6.30;;;20.50;99.90;;;;;;2075257;28;20021;-74
2022/07/23 01:51:22;;;;;;;6.82;6.13;;;20.50;99.90;;;;;;2071007;28;20034;-75
2022/07/23 01:52:55;;;;;;;7.65;6.00;;;20.50;99.90;;;;;;2066279;28;20029;-75
2022/07/23 01:53:56;;;;;;;6.70;6.10;;;20.50;99.90;;;;;;2080211;28;20061;-74
2022/07/23 01:54:56;;;;;;;6.25;5.72;;;20.50;99.90;;;;;;2082711;28;20026;-74
2022/07/23 01:55:58;;;;;;;6.97;6.28;;;20.40;99.90;;;;;;2076788;28;20116;-73
2022/07/23 01:56:59;;;;;;;6.93;6.32;;;20.40;99.90;;;;;;2076662;28;20081;-74
2022/07/23 01:58:00;;;;;;;6.82;6.03;;;20.40;99.90;;;;;;2084442;28;20029;-75
2022/07/23 01:59:03;;;;;;;7.53;6.20;;;20.40;99.90;;;;;;2072416;28;20037;-74
2022/07/23 02:00:05;;;;;;;6.40;5.88;;;20.30;99.90;;;;;;2064787;28;20112;-74
2022/07/23 02:01:13;;;;;;;6.40;5.90;;;20.30;99.90;;;;;;2072413;28;20041;-74
2022/07/23 02:02:14;;;;;;;6.75;6.25;;;20.30;99.90;;;;;;2072983;28;20461;-74
2022/07/23 02:03:14;;;;;;;6.75;6.15;;;20.30;99.90;;;;;;2064065;28;20058;-75
2022/07/23 02:04:15;;;;;;;6.82;6.20;;;20.30;99.90;;;;;;2064374;28;20030;-75
2022/07/23 02:05:16;;;;;;;6.57;6.05;;;20.30;99.90;;;;;;2064200;28;20117;-74
2022/07/23 02:06:19;;;;;;;6.32;5.82;;;20.30;99.90;;;;;;2064084;28;20045;-75
2022/07/23 02:07:23;;;;;;;6.68;6.07;;;20.30;99.90;;;;;;2080266;28;20384;-74
2022/07/23 02:08:26;;;;;;;6.03;5.43;;;20.30;99.90;;;;;;2079678;28;20087;-74
2022/07/23 02:09:26;;;;;;;6.32;5.82;;;20.30;99.90;;;;;;2064345;28;20105;-74
2022/07/23 02:10:27;;;;;;;7.30;6.65;;;20.40;99.90;;;;;;2064229;28;20045;-74
2022/07/23 02:11:28;;;;;;;7.25;6.55;;;20.40;99.90;;;;;;2073026;28;20040;-74
2022/07/23 02:12:29;;;;;;;6.80;6.20;;;20.40;99.90;;;;;;2064238;28;20137;-74
2022/07/23 02:13:30;;;;;;;6.68;6.07;;;20.40;99.90;;;;;;2072584;28;20026;-75
2022/07/23 02:14:31;;;;;;;6.55;5.95;;;20.30;99.90;;;;;;2072372;28;20041;-73
2022/07/23 02:15:32;;;;;;;6.70;6.10;;;20.30;99.90;;;;;;2064789;28;20085;-74
2022/07/23 02:16:33;;;;;;;7.22;6.63;;;20.30;99.90;;;;;;2068961;28;20121;-74
2022/07/23 02:17:36;;;;;;;7.10;6.50;;;20.30;99.90;;;;;;2077822;28;20092;-74
2022/07/23 02:18:37;;;;;;;6.88;6.28;;;20.30;99.90;;;;;;2077552;28;20074;-74
2022/07/23 02:19:38;;;;;;;6.28;5.68;;;20.20;99.90;;;;;;2068498;28;20747;-74
2022/07/23 02:20:39;;;;;;;7.10;5.90;;;20.20;99.90;;;;;;2058482;28;20098;-74
2022/07/23 02:21:42;;;;;;;6.60;6.00;;;20.20;99.90;;;;;;2056822;28;20511;-74
2022/07/23 02:22:43;;;;;;;7.15;6.45;;;20.20;99.90;;;;;;2072788;28;20563;-75
2022/07/23 02:23:44;;;;;;;6.97;6.38;;;20.20;99.90;;;;;;2073216;28;20025;-73
2022/07/23 02:24:48;;;;;;;6.70;6.10;;;20.20;99.90;;;;;;2065560;28;20011;-73
2022/07/23 02:25:49;;;;;;;6.75;6.05;;;20.20;99.90;;;;;;2064942;28;20037;-72
2022/07/23 02:26:49;;;;;;;6.10;5.60;;;20.20;99.90;;;;;;2064405;28;20092;-73
2022/07/23 02:27:50;;;;;;;6.70;6.03;;;20.10;99.90;;;;;;2064745;28;20026;-73
2022/07/23 02:28:52;;;;;;;6.65;6.00;;;20.10;99.90;;;;;;2080963;28;20408;-75
2022/07/23 02:29:54;;;;;;;6.40;5.75;;;20.10;99.90;;;;;;2080560;28;20496;-75
2022/07/23 02:30:55;;;;;;;6.30;5.80;;;20.10;99.90;;;;;;2064377;28;20065;-74
2022/07/23 02:31:55;;;;;;;6.80;6.20;;;20.10;99.90;;;;;;2064237;28;20026;-73
2022/07/23 02:32:57;;;;;;;6.47;5.97;;;20.10;99.90;;;;;;2064627;28;20042;-75
2022/07/23 02:33:59;;;;;;;6.05;5.55;;;20.10;99.90;;;;;;2064834;28;20031;-74
2022/07/23 02:35:02;;;;;;;6.30;5.80;;;20.10;99.90;;;;;;2064894;28;20152;-75
2022/07/23 02:36:04;;;;;;;6.20;5.70;;;20.10;99.90;;;;;;2072989;28;20026;-75
2022/07/23 02:37:08;;;;;;;6.53;5.93;;;20.10;99.90;;;;;;2080871;28;20044;-76
2022/07/23 02:38:13;;;;;;;6.00;5.50;;;20.10;99.90;;;;;;2072971;28;20470;-73
2022/07/23 02:39:14;;;;;;;6.38;5.85;;;20.10;99.90;;;;;;2065191;28;20034;-73
2022/07/23 02:40:16;;;;;;;6.80;6.20;;;20.10;99.90;;;;;;2064969;28;20058;-75
2022/07/23 02:41:53;;;;;;;6.82;6.13;;;20.10;99.90;;;;;;2069648;28;20097;-74
2022/07/23 02:43:00;;;;;;;6.70;6.10;;;20.10;99.90;;;;;;2059009;28;20153;-74
2022/07/23 02:44:06;;;;;;;6.22;5.65;;;20.10;99.90;;;;;;2066176;28;20034;-74
2022/07/23 02:45:16;;;;;;;6.28;5.78;;;20.10;99.90;;;;;;2074918;28;20029;-74
2022/07/23 02:46:20;;;;;;;6.63;6.03;;;20.10;99.90;;;;;;2081911;28;20507;-76
2022/07/23 02:47:27;;;;;;;6.95;6.25;;;20.10;99.90;;;;;;2083442;28;20064;-73
2022/07/23 02:48:34;;;;;;;7.00;6.30;;;20.10;99.90;;;;;;2074631;28;20030;-73
2022/07/23 02:49:59;;;;;;;7.93;6.65;;;20.10;99.90;;;;;;2067378;28;20027;-74
2022/07/23 02:51:28;;;;;;;6.68;6.10;;;20.10;99.90;;;;;;2071870;28;20385;-75
2022/07/23 02:52:57;;;;;;;7.97;6.85;;;20.10;99.90;;;;;;2081846;28;20546;-75
2022/07/23 02:54:08;;;;;;;6.63;5.97;;;20.00;99.90;;;;;;2070616;28;20110;-76
2022/07/23 02:55:13;;;;;;;7.30;6.63;;;20.00;99.90;;;;;;2075134;28;20116;-75
2022/07/23 02:56:17;;;;;;;7.50;6.80;;;20.00;99.90;;;;;;2072617;28;20056;-76
2022/07/23 02:57:28;;;;;;;6.97;6.38;;;19.90;99.90;;;;;;2066098;28;20488;-75
2022/07/23 02:58:44;;;;;;;6.50;6.00;;;19.90;99.90;;;;;;2065017;28;20640;-76
2022/07/23 02:59:48;;;;;;;6.78;6.22;;;19.90;99.90;;;;;;2066546;28;20072;-76
2022/07/23 03:00:59;;;;;;;7.90;6.28;;;19.90;99.90;;;;;;2064850;28;20026;-75
2022/07/23 03:04:42;;;;;;;6.88;6.10;;;19.80;99.90;;;;;;2053605;28;20047;-76
2022/07/23 03:05:51;;;;;;;7.10;6.50;;;19.90;99.90;;;;;;2077299;28;20029;-75
2022/07/23 03:08:27;;;;;;;6.88;6.28;;;19.90;99.90;;;;;;2070915;28;20029;-74
2022/07/23 03:10:08;;;;;;;6.78;6.07;;;19.90;99.90;;;;;;2074597;28;20037;-76
2022/07/23 03:11:15;;;;;;;6.70;6.10;;;19.90;99.90;;;;;;2072869;28;20041;-75
2022/07/23 03:12:19;;;;;;;7.30;6.63;;;20.00;99.90;;;;;;2065520;28;20022;-75
2022/07/23 03:13:20;;;;;;;6.93;6.20;;;19.90;99.90;;;;;;2057030;28;20038;-75
2022/07/23 03:14:24;;;;;;;7.35;6.00;;;19.90;99.90;;;;;;2065281;28;20039;-75
2022/07/23 03:15:25;;;;;;;6.80;6.20;;;19.90;99.90;;;;;;2064430;28;20374;-75
2022/07/23 03:16:29;;;;;;;6.80;6.20;;;19.90;99.90;;;;;;2064521;28;20092;-76
2022/07/23 03:17:32;;;;;;;6.65;6.10;;;20.00;99.90;;;;;;2064686;28;20531;-75
2022/07/23 03:18:37;;;;;;;6.63;6.00;;;19.90;99.90;;;;;;2080726;28;20511;-75
2022/07/23 03:19:41;;;;;;;6.75;6.15;;;20.00;99.90;;;;;;2072533;28;20026;-75
2022/07/23 03:20:43;;;;;;;7.07;6.47;;;20.00;99.90;;;;;;2065690;28;20189;-73
2022/07/23 03:21:45;;;;;;;6.43;5.82;;;20.00;99.90;;;;;;2064618;28;20109;-74
2022/07/23 03:22:47;;;;;;;6.75;6.15;;;20.00;99.90;;;;;;2064570;28;20771;-74
2022/07/23 03:23:47;;;;;;;6.68;6.10;;;20.00;99.90;;;;;;2064854;28;20067;-73
2022/07/23 03:24:54;;;;;;;6.85;6.20;;;20.00;99.90;;;;;;2073082;28;20029;-73
2022/07/23 03:25:58;;;;;;;7.20;6.50;;;20.00;99.90;;;;;;2071239;28;20524;-74
2022/07/23 03:26:59;;;;;;;6.75;6.15;;;20.00;99.90;;;;;;2063939;28;20109;-74
2022/07/23 03:27:59;;;;;;;6.63;6.03;;;20.00;99.90;;;;;;2072787;28;20029;-74
2022/07/23 03:29:03;;;;;;;7.05;6.45;;;20.00;99.90;;;;;;2055646;28;20026;-75
2022/07/23 03:30:08;;;;;;;6.38;5.78;;;20.00;99.90;;;;;;2057386;28;20110;-75
2022/07/23 03:31:09;;;;;;;6.60;6.00;;;20.00;99.90;;;;;;2065092;28;20030;-75
2022/07/23 03:32:12;;;;;;;6.32;5.82;;;20.00;99.90;;;;;;2072921;28;20070;-74
2022/07/23 03:33:16;;;;;;;8.15;6.00;;;20.00;99.90;;;;;;2072411;28;20607;-74
2022/07/23 03:34:18;;;;;;;7.00;6.10;;;20.00;99.90;;;;;;2065049;28;20119;-75
2022/07/23 03:35:19;;;;;;;6.53;6.00;;;20.00;99.90;;;;;;2072826;28;20037;-74
2022/07/23 03:36:31;;;;;;;7.20;6.50;;;20.00;99.90;;;;;;2070519;28;20415;-74
2022/07/23 03:37:33;;;;;;;6.82;6.22;;;20.10;99.90;;;;;;2066011;28;20041;-75
2022/07/23 03:38:34;;;;;;;6.70;5.97;;;20.00;99.90;;;;;;2080523;28;20115;-74
2022/07/23 03:39:35;;;;;;;7.95;6.30;;;20.00;99.90;;;;;;2072386;28;20096;-75
2022/07/23 03:40:36;;;;;;;6.35;5.85;;;20.10;99.90;;;;;;2064437;28;20030;-76
2022/07/23 03:41:37;;;;;;;7.88;6.20;;;20.10;99.90;;;;;;2072589;28;20030;-75
2022/07/23 03:42:42;;;;;;;6.65;6.05;;;20.10;99.90;;;;;;2072278;28;20057;-75
2022/07/23 03:43:42;;;;;;;7.40;6.70;;;20.10;99.90;;;;;;2071979;28;20026;-74
2022/07/23 03:44:45;;;;;;;10.45;6.35;;;20.10;99.90;;;;;;2072493;28;20056;-74
2022/07/23 03:45:48;;;;;;;8.48;6.28;;;20.10;99.90;;;;;;2064240;28;20034;-73
2022/07/23 03:46:49;;;;;;;7.38;6.68;;;20.10;99.90;;;;;;2073294;28;20033;-75
2022/07/23 03:47:50;;;;;;;7.55;6.32;;;20.10;99.90;;;;;;2080720;28;20282;-74
2022/07/23 03:48:52;;;;;;;8.05;6.90;;;20.00;99.90;;;;;;2081645;28;20028;-76
2022/07/23 03:49:52;;;;;;;7.90;6.88;;;20.10;99.90;;;;;;2073321;28;20086;-75
2022/07/23 03:50:53;;;;;;;7.20;6.50;;;20.10;99.90;;;;;;2064871;28;20426;-75
2022/07/23 03:51:54;;;;;;;7.13;6.43;;;20.00;99.90;;;;;;2064263;28;20082;-76
2022/07/23 03:52:55;;;;;;;7.43;6.72;;;20.00;99.90;;;;;;2063903;28;20404;-77
2022/07/23 03:53:56;;;;;;;9.20;6.63;;;20.00;99.90;;;;;;2072376;28;20032;-76
2022/07/23 03:54:59;;;;;;;8.13;6.80;;;20.00;99.90;;;;;;2064292;28;20045;-75
2022/07/23 03:56:03;;;;;;;8.07;6.90;;;20.00;99.90;;;;;;2064431;28;20037;-75
2022/07/23 03:57:04;;;;;;;7.70;6.88;;;20.00;99.90;;;;;;2073096;28;20080;-75
2022/07/23 03:58:05;;;;;;;7.20;6.55;;;20.00;99.90;;;;;;2072121;28;20455;-76
2022/07/23 03:59:06;;;;;;;7.15;6.45;;;20.00;99.90;;;;;;2064119;28;20582;-75
2022/07/23 04:00:09;;;;;;;7.13;6.50;;;19.90;99.90;;;;;;2080305;28;20025;-75
2022/07/23 04:01:14;;;;;;;7.80;7.20;;;20.00;99.90;;;;;;2079985;28;20129;-74
2022/07/23 04:02:15;;;;;;;7.65;6.93;;;20.00;99.90;;;;;;2072241;28;20045;-75
2022/07/23 04:03:21;;;;;;;7.22;6.63;;;20.00;99.90;;;;;;2072986;28;20044;-73
2022/07/23 04:04:23;;;;;;;7.72;7.03;;;20.00;99.90;;;;;;2072834;28;20026;-75
2022/07/23 04:05:24;;;;;;;7.43;6.72;;;20.00;99.90;;;;;;2064593;28;20031;-75
2022/07/23 04:06:30;;;;;;;7.55;6.75;;;19.90;99.90;;;;;;2064742;28;20027;-75
2022/07/23 04:07:34;;;;;;;7.95;7.15;;;19.90;99.90;;;;;;2072680;28;20030;-74
2022/07/23 04:08:38;;;;;;;7.75;6.95;;;19.90;99.90;;;;;;2071843;28;20109;-77
2022/07/23 04:09:42;;;;;;;7.07;6.47;;;19.90;99.90;;;;;;2072703;28;20033;-73
2022/07/23 04:10:43;;;;;;;7.30;6.70;;;20.00;99.90;;;;;;2079724;28;20028;-74
2022/07/23 04:11:45;;;;;;;7.15;6.55;;;19.90;99.90;;;;;;2064260;28;20026;-76
2022/07/23 04:12:46;;;;;;;7.20;6.50;;;20.00;99.90;;;;;;2064857;28;20382;-75
2022/07/23 04:13:46;;;;;;;7.63;6.95;;;20.00;99.90;;;;;;2080932;28;20064;-73
2022/07/23 04:14:50;;;;;;;7.50;6.80;;;19.90;99.90;;;;;;2080535;28;20093;-74
2022/07/23 04:15:51;;;;;;;9.15;7.35;;;19.90;99.90;;;;;;2064456;28;20472;-75
2022/07/23 04:16:52;;;;;;;7.75;7.10;;;19.90;99.90;;;;;;2064128;28;20042;-76
2022/07/23 04:17:54;;;;;;;7.57;6.88;;;19.90;99.90;;;;;;2064950;28;20148;-75
2022/07/23 04:19:00;;;;;;;9.18;7.32;;;19.90;99.90;;;;;;2074411;28;20105;-77
2022/07/23 04:20:05;;;;;;;7.70;7.05;;;19.90;99.90;;;;;;2073957;28;20110;-77
2022/07/23 04:21:12;;;;;;;8.02;7.32;;;19.90;99.90;;;;;;2066914;28;20027;-76
2022/07/23 04:22:23;;;;;;;8.60;7.57;;;19.80;99.90;;;;;;2074579;28;20034;-77
2022/07/23 04:23:23;;;;;;;8.65;7.50;;;19.80;99.90;;;;;;2074626;28;20056;-76
2022/07/23 04:24:24;;;;;;;8.15;7.35;;;19.80;99.90;;;;;;2066825;28;20026;-75
2022/07/23 04:25:25;;;;;;;8.07;7.38;;;19.80;99.90;;;;;;2059261;28;20027;-75
2022/07/23 04:26:26;;;;;;;7.97;7.28;;;19.80;99.90;;;;;;2069535;28;20034;-75
2022/07/23 04:27:27;;;;;;;8.77;7.88;;;19.80;99.90;;;;;;2079808;28;20081;-75
2022/07/23 04:28:28;;;;;;;8.18;7.40;;;19.80;99.90;;;;;;2070177;28;20035;-76
2022/07/23 04:29:29;;;;;;;8.18;7.15;;;19.80;99.90;;;;;;2069621;28;20022;-75
2022/07/23 04:30:33;;;;;;;8.70;7.63;;;19.80;99.90;;;;;;2069606;28;20030;-74
2022/07/23 04:31:34;;;;;;;7.65;7.05;;;19.80;99.90;;;;;;2077959;28;20037;-76
2022/07/23 04:32:34;;;;;;;9.15;7.63;;;19.70;99.90;;;;;;2077362;28;20105;-75
2022/07/23 04:33:41;;;;;;;9.73;8.25;;;19.80;99.90;;;;;;2084179;28;20022;-74
2022/07/23 04:34:43;;;;;;;8.27;7.22;;;19.80;99.90;;;;;;2075441;28;20037;-78
2022/07/23 04:35:48;;;;;;;7.75;7.00;;;19.70;99.90;;;;;;2076017;28;20018;-75
2022/07/23 04:36:54;;;;;;;8.05;7.35;;;19.80;99.90;;;;;;2074608;28;20535;-76
2022/07/23 04:37:55;;;;;;;7.70;7.00;;;19.80;99.90;;;;;;2067210;28;20041;-75
2022/07/23 04:38:56;;;;;;;9.85;7.90;;;19.90;99.90;;;;;;2067403;28;20042;-75
2022/07/23 04:40:06;;;;;;;8.65;7.70;;;19.80;99.90;;;;;;2067526;28;20026;-73
2022/07/23 04:41:07;;;;;;;7.78;6.97;;;19.80;99.90;;;;;;2066750;28;20030;-75
2022/07/23 04:42:07;;;;;;;7.82;7.07;;;19.90;99.90;;;;;;2066656;28;20018;-73
2022/07/23 04:43:08;;;;;;;8.43;7.60;;;19.80;99.90;;;;;;2082538;28;20026;-73
2022/07/23 04:44:15;;;;;;;8.18;7.38;;;19.80;99.90;;;;;;2074628;28;20056;-74
2022/07/23 04:45:16;;;;;;;7.93;7.22;;;19.80;99.90;;;;;;2066688;28;20031;-75
2022/07/23 04:46:18;;;;;;;8.73;7.40;;;19.90;99.90;;;;;;2066994;28;20026;-75
2022/07/23 04:47:23;;;;;;;8.73;7.28;;;19.80;99.90;;;;;;2066640;28;20034;-73
2022/07/23 04:48:24;;;;;;;7.28;6.50;;;19.80;99.90;;;;;;2067133;28;20106;-74
2022/07/23 04:49:32;;;;;;;7.43;6.72;;;19.80;99.90;;;;;;2066780;28;20029;-74
2022/07/23 04:50:37;;;;;;;7.15;6.55;;;19.80;99.90;;;;;;2066562;28;20040;-75
2022/07/23 04:51:39;;;;;;;7.00;6.40;;;19.90;99.90;;;;;;2067698;28;20072;-77
2022/07/23 04:52:43;;;;;;;7.78;6.90;;;19.90;99.90;;;;;;2074251;28;20033;-76
2022/07/23 04:53:46;;;;;;;7.40;6.43;;;19.90;99.90;;;;;;2074745;28;20029;-76
2022/07/23 04:54:47;;;;;;;7.60;6.78;;;19.90;99.90;;;;;;2074700;28;20026;-76
2022/07/23 04:55:48;;;;;;;10.55;7.50;;;19.90;99.90;;;;;;2074816;28;20512;-76
2022/07/23 04:56:49;;;;;;;7.18;6.55;;;19.80;99.90;;;;;;2075319;28;20041;-76
2022/07/23 04:57:50;;;;;;;6.90;6.30;;;19.80;99.90;;;;;;2066680;28;20030;-77
2022/07/23 04:58:50;;;;;;;7.10;6.40;;;19.80;99.90;;;;;;2064682;28;20034;-74
2022/07/23 04:59:51;;;;;;;7.03;6.35;;;19.90;99.90;;;;;;2064684;28;20424;-75
2022/07/23 05:00:52;;;;;;;7.45;6.65;;;19.90;99.90;;;;;;2073798;28;20546;-75
2022/07/23 05:01:53;;;;;;;6.97;6.28;;;19.90;99.90;;;;;;2064545;28;20049;-76
2022/07/23 05:02:53;;;;;;;6.55;5.95;;;19.90;99.90;;;;;;2056866;28;20114;-74
2022/07/23 05:03:55;;;;;;;7.13;6.13;;;20.00;99.90;;;;;;2065982;28;20022;-75
2022/07/23 05:04:55;;;;;;;7.10;6.40;;;20.00;99.90;;;;;;2065254;28;20038;-77
2022/07/23 05:05:56;;;;;;;6.88;6.18;;;20.10;99.90;;;;;;2080751;28;20120;-75
2022/07/23 05:06:58;;;;;;;8.25;6.45;;;20.10;99.90;;;;;;2072974;28;20029;-76
2022/07/23 05:07:59;;;;;;;8.52;7.15;;;20.10;99.90;;;;;;2064609;28;20090;-76
2022/07/23 05:09:02;;;;;;;7.20;6.50;;;20.10;99.90;;;;;;2080604;28;20044;-76
2022/07/23 05:10:04;;;;;;;7.18;6.50;;;20.10;99.90;;;;;;2072281;28;20021;-75
2022/07/23 05:11:05;;;;;;;7.25;6.50;;;20.10;99.90;;;;;;2064531;28;20027;-75
2022/07/23 05:12:06;;;;;;;7.50;6.57;;;20.20;99.90;;;;;;2072458;28;20026;-76
2022/07/23 05:13:08;;;;;;;6.60;5.97;;;20.20;99.90;;;;;;2071905;28;20033;-75
2022/07/23 05:14:12;;;;;;;7.15;6.45;;;20.30;99.90;;;;;;2064399;28;20392;-75
2022/07/23 05:15:13;;;;;;;7.22;6.53;;;20.40;99.90;;;;;;2064367;28;20038;-75
2022/07/23 05:16:13;;;;;;;9.70;6.55;;;20.40;99.90;;;;;;2072679;28;20037;-74
2022/07/23 05:17:14;;;;;;;8.07;6.68;;;20.40;99.90;;;;;;2080431;28;20029;-74
2022/07/23 05:18:15;;;;;;;7.20;6.50;;;20.40;99.90;;;;;;2064365;28;20065;-75
2022/07/23 05:19:16;;;;;;;7.60;6.90;;;20.40;99.90;;;;;;2072640;28;20435;-75
2022/07/23 05:20:17;;;;;;;7.35;6.65;;;20.50;99.90;;;;;;2072751;28;20038;-76
2022/07/23 05:21:18;;;;;;;8.13;7.15;;;20.50;99.90;;;;;;2064546;28;20077;-75
2022/07/23 05:22:19;;;;;;;7.70;6.80;;;20.50;99.90;;;;;;2080648;28;20231;-74
2022/07/23 05:23:19;;;;;;;7.88;6.75;;;20.50;99.90;;;;;;2080625;28;20420;-75
2022/07/23 05:24:22;;;;;;;7.70;6.50;;;20.50;99.90;;;;;;2081187;28;20022;-77
2022/07/23 05:25:23;;;;;;;7.72;6.82;;;20.50;99.90;;;;;;2072542;28;20022;-75
2022/07/23 05:26:24;;;;;;;8.52;7.00;;;20.50;99.90;;;;;;2064048;28;20054;-75
2022/07/23 05:27:25;;;;;;;7.30;6.60;;;20.50;99.90;;;;;;2064478;28;20034;-76
2022/07/23 05:28:26;;;;;;;7.45;6.75;;;20.50;99.90;;;;;;2071780;28;20084;-75
2022/07/23 05:29:28;;;;;;;7.72;6.68;;;20.60;99.90;;;;;;2080668;28;20435;-76
2022/07/23 05:30:28;;;;;;;7.65;6.80;;;20.60;99.90;;;;;;2072483;28;20105;-76
2022/07/23 05:31:33;;;;;;;6.68;6.07;;;20.60;99.90;;;;;;2072531;28;20049;-74